sensor_id;sensor_type;location;lat;lon;timestamp;P1;durP1;ratioP1;P2;durP2;ratioP2
23812;SDS011;12087;45.190;5.688;2023-04-06T00:04:16;5.32;;;3.88;;
23812;SDS011;12087;45.190;5.688;2023-04-06T00:09:40;7.10;;;3.65;;
23812;SDS011;12087;45.190;5.688;2023-04-06T00:15:02;6.78;;;4.20;;
23812;SDS011;12087;45.190;5.688;2023-04-06T00:20:26;7.78;;;4.15;;
23812;SDS011;12087;45.190;5.688;2023-04-06T00:25:49;5.47;;;3.75;;
23812;SDS011;12087;45.190;5.688;2023-04-06T00:31:11;6.72;;;4.07;;
23812;SDS011;12087;45.190;5.688;2023-04-06T00:36:34;6.07;;;3.97;;
23812;SDS011;12087;45.190;5.688;2023-04-06T00:41:57;7.68;;;4.15;;
23812;SDS011;12087;45.190;5.688;2023-04-06T00:47:20;7.90;;;4.78;;
23812;SDS011;12087;45.190;5.688;2023-04-06T00:52:43;6.85;;;4.45;;
23812;SDS011;12087;45.190;5.688;2023-04-06T00:58:07;8.23;;;4.63;;
23812;SDS011;12087;45.190;5.688;2023-04-06T01:03:29;6.47;;;4.53;;
23812;SDS011;12087;45.190;5.688;2023-04-06T01:08:52;8.02;;;4.45;;
23812;SDS011;12087;45.190;5.688;2023-04-06T01:14:16;9.70;;;5.07;;
23812;SDS011;12087;45.190;5.688;2023-04-06T01:19:38;7.25;;;4.28;;
23812;SDS011;12087;45.190;5.688;2023-04-06T01:25:02;6.75;;;4.68;;
23812;SDS011;12087;45.190;5.688;2023-04-06T01:30:24;9.75;;;4.85;;
23812;SDS011;12087;45.190;5.688;2023-04-06T01:35:47;6.22;;;4.65;;
23812;SDS011;12087;45.190;5.688;2023-04-06T01:41:11;5.90;;;4.70;;
23812;SDS011;12087;45.190;5.688;2023-04-06T01:46:33;8.63;;;4.70;;
23812;SDS011;12087;45.190;5.688;2023-04-06T01:51:55;6.60;;;3.53;;
23812;SDS011;12087;45.190;5.688;2023-04-06T01:57:19;7.25;;;3.97;;
23812;SDS011;12087;45.190;5.688;2023-04-06T02:02:41;7.65;;;3.72;;
23812;SDS011;12087;45.190;5.688;2023-04-06T02:08:04;5.43;;;3.95;;
23812;SDS011;12087;45.190;5.688;2023-04-06T02:13:28;5.20;;;3.80;;
23812;SDS011;12087;45.190;5.688;2023-04-06T02:18:50;4.45;;;3.28;;
23812;SDS011;12087;45.190;5.688;2023-04-06T02:24:12;4.72;;;3.47;;
23812;SDS011;12087;45.190;5.688;2023-04-06T02:29:36;5.35;;;3.70;;
23812;SDS011;12087;45.190;5.688;2023-04-06T02:34:58;6.63;;;3.63;;
23812;SDS011;12087;45.190;5.688;2023-04-06T02:40:21;6.90;;;4.88;;
23812;SDS011;12087;45.190;5.688;2023-04-06T02:45:44;6.25;;;4.05;;
23812;SDS011;12087;45.190;5.688;2023-04-06T02:51:07;6.22;;;4.00;;
23812;SDS011;12087;45.190;5.688;2023-04-06T02:56:29;7.90;;;4.15;;
23812;SDS011;12087;45.190;5.688;2023-04-06T03:01:53;6.55;;;5.00;;
23812;SDS011;12087;45.190;5.688;2023-04-06T03:07:15;11.27;;;5.43;;
23812;SDS011;12087;45.190;5.688;2023-04-06T03:12:37;9.10;;;5.10;;
23812;SDS011;12087;45.190;5.688;2023-04-06T03:18:03;8.05;;;5.35;;
23812;SDS011;12087;45.190;5.688;2023-04-06T03:23:25;6.57;;;5.03;;
23812;SDS011;12087;45.190;5.688;2023-04-06T03:28:47;8.20;;;5.57;;
23812;SDS011;12087;45.190;5.688;2023-04-06T03:34:11;7.22;;;4.50;;
23812;SDS011;12087;45.190;5.688;2023-04-06T03:39:33;6.07;;;4.55;;
23812;SDS011;12087;45.190;5.688;2023-04-06T03:44:55;6.32;;;4.93;;
23812;SDS011;12087;45.190;5.688;2023-04-06T03:50:19;8.23;;;5.07;;
23812;SDS011;12087;45.190;5.688;2023-04-06T03:55:41;6.85;;;4.78;;
23812;SDS011;12087;45.190;5.688;2023-04-06T04:01:04;5.57;;;4.57;;
23812;SDS011;12087;45.190;5.688;2023-04-06T04:06:27;6.00;;;4.80;;
23812;SDS011;12087;45.190;5.688;2023-04-06T04:11:50;8.57;;;5.15;;
23812;SDS011;12087;45.190;5.688;2023-04-06T04:17:12;8.90;;;5.15;;
23812;SDS011;12087;45.190;5.688;2023-04-06T04:22:35;7.30;;;4.82;;
23812;SDS011;12087;45.190;5.688;2023-04-06T04:27:58;7.80;;;4.65;;
23812;SDS011;12087;45.190;5.688;2023-04-06T04:33:20;7.28;;;5.00;;
23812;SDS011;12087;45.190;5.688;2023-04-06T04:38:44;7.68;;;4.70;;
23812;SDS011;12087;45.190;5.688;2023-04-06T04:44:06;7.28;;;4.80;;
23812;SDS011;12087;45.190;5.688;2023-04-06T04:49:28;6.63;;;4.53;;
23812;SDS011;12087;45.190;5.688;2023-04-06T04:54:52;15.18;;;5.10;;
23812;SDS011;12087;45.190;5.688;2023-04-06T05:00:14;9.85;;;5.88;;
23812;SDS011;12087;45.190;5.688;2023-04-06T05:05:37;11.65;;;7.20;;
23812;SDS011;12087;45.190;5.688;2023-04-06T05:11:00;11.55;;;6.38;;
23812;SDS011;12087;45.190;5.688;2023-04-06T05:16:23;10.65;;;6.28;;
23812;SDS011;12087;45.190;5.688;2023-04-06T05:21:45;10.80;;;5.65;;
23812;SDS011;12087;45.190;5.688;2023-04-06T05:27:09;8.98;;;5.68;;
23812;SDS011;12087;45.190;5.688;2023-04-06T05:32:31;14.60;;;7.28;;
23812;SDS011;12087;45.190;5.688;2023-04-06T05:37:54;13.57;;;5.20;;
23812;SDS011;12087;45.190;5.688;2023-04-06T05:43:17;6.72;;;5.43;;
23812;SDS011;12087;45.190;5.688;2023-04-06T05:48:39;9.70;;;4.93;;
23812;SDS011;12087;45.190;5.688;2023-04-06T05:54:02;10.52;;;5.07;;
23812;SDS011;12087;45.190;5.688;2023-04-06T05:59:26;12.65;;;5.60;;
23812;SDS011;12087;45.190;5.688;2023-04-06T06:04:48;15.05;;;5.95;;
23812;SDS011;12087;45.190;5.688;2023-04-06T06:10:10;8.55;;;5.20;;
23812;SDS011;12087;45.190;5.688;2023-04-06T06:15:34;10.25;;;6.28;;
23812;SDS011;12087;45.190;5.688;2023-04-06T06:20:56;15.15;;;6.95;;
23812;SDS011;12087;45.190;5.688;2023-04-06T06:26:19;9.45;;;6.05;;
23812;SDS011;12087;45.190;5.688;2023-04-06T06:31:43;8.43;;;6.43;;
23812;SDS011;12087;45.190;5.688;2023-04-06T06:37:05;11.55;;;6.57;;
23812;SDS011;12087;45.190;5.688;2023-04-06T06:42:27;6.75;;;5.05;;
23812;SDS011;12087;45.190;5.688;2023-04-06T06:47:51;6.93;;;5.13;;
23812;SDS011;12087;45.190;5.688;2023-04-06T06:53:13;9.65;;;5.00;;
23812;SDS011;12087;45.190;5.688;2023-04-06T06:58:36;9.60;;;4.90;;
23812;SDS011;12087;45.190;5.688;2023-04-06T07:03:59;7.75;;;4.95;;
23812;SDS011;12087;45.190;5.688;2023-04-06T07:09:22;9.57;;;5.63;;
23812;SDS011;12087;45.190;5.688;2023-04-06T07:14:44;7.43;;;5.00;;
23812;SDS011;12087;45.190;5.688;2023-04-06T07:20:08;13.23;;;6.05;;
23812;SDS011;12087;45.190;5.688;2023-04-06T07:25:31;9.90;;;5.88;;
23812;SDS011;12087;45.190;5.688;2023-04-06T07:30:53;7.70;;;5.28;;
23812;SDS011;12087;45.190;5.688;2023-04-06T07:36:17;11.55;;;5.07;;
23812;SDS011;12087;45.190;5.688;2023-04-06T07:41:39;11.38;;;5.30;;
23812;SDS011;12087;45.190;5.688;2023-04-06T07:47:02;9.00;;;5.32;;
23812;SDS011;12087;45.190;5.688;2023-04-06T07:52:25;12.68;;;5.30;;
23812;SDS011;12087;45.190;5.688;2023-04-06T07:57:48;8.63;;;5.13;;
23812;SDS011;12087;45.190;5.688;2023-04-06T08:03:10;13.05;;;5.97;;
23812;SDS011;12087;45.190;5.688;2023-04-06T08:08:34;14.02;;;6.22;;
23812;SDS011;12087;45.190;5.688;2023-04-06T08:13:56;7.38;;;6.13;;
23812;SDS011;12087;45.190;5.688;2023-04-06T08:19:18;10.23;;;5.93;;
23812;SDS011;12087;45.190;5.688;2023-04-06T08:24:42;10.63;;;6.18;;
23812;SDS011;12087;45.190;5.688;2023-04-06T08:30:05;8.68;;;6.72;;
23812;SDS011;12087;45.190;5.688;2023-04-06T08:35:28;9.25;;;6.68;;
23812;SDS011;12087;45.190;5.688;2023-04-06T08:40:51;10.80;;;5.63;;
23812;SDS011;12087;45.190;5.688;2023-04-06T08:46:13;8.95;;;6.07;;
23812;SDS011;12087;45.190;5.688;2023-04-06T08:51:36;14.18;;;7.20;;
23812;SDS011;12087;45.190;5.688;2023-04-06T08:57:00;6.97;;;5.35;;
23812;SDS011;12087;45.190;5.688;2023-04-06T09:02:23;9.20;;;6.00;;
23812;SDS011;12087;45.190;5.688;2023-04-06T09:07:46;18.83;;;13.85;;
23812;SDS011;12087;45.190;5.688;2023-04-06T09:13:10;14.00;;;8.02;;
23812;SDS011;12087;45.190;5.688;2023-04-06T09:18:32;8.90;;;5.47;;
23812;SDS011;12087;45.190;5.688;2023-04-06T09:23:58;17.73;;;12.38;;
23812;SDS011;12087;45.190;5.688;2023-04-06T09:29:25;16.55;;;12.57;;
23812;SDS011;12087;45.190;5.688;2023-04-06T09:34:48;5.93;;;4.38;;
23812;SDS011;12087;45.190;5.688;2023-04-06T09:40:10;6.95;;;4.40;;
23812;SDS011;12087;45.190;5.688;2023-04-06T09:45:35;9.68;;;8.40;;
23812;SDS011;12087;45.190;5.688;2023-04-06T09:50:58;11.52;;;5.97;;
23812;SDS011;12087;45.190;5.688;2023-04-06T09:56:24;8.38;;;5.03;;
23812;SDS011;12087;45.190;5.688;2023-04-06T10:01:54;10.77;;;5.50;;
23812;SDS011;12087;45.190;5.688;2023-04-06T10:07:19;7.38;;;4.20;;
23812;SDS011;12087;45.190;5.688;2023-04-06T10:12:43;9.57;;;4.35;;
23812;SDS011;12087;45.190;5.688;2023-04-06T10:18:08;4.65;;;3.88;;
23812;SDS011;12087;45.190;5.688;2023-04-06T10:23:31;10.25;;;5.90;;
23812;SDS011;12087;45.190;5.688;2023-04-06T10:29:01;8.98;;;6.28;;
23812;SDS011;12087;45.190;5.688;2023-04-06T10:34:33;9.35;;;4.38;;
23812;SDS011;12087;45.190;5.688;2023-04-06T10:39:56;20.52;;;10.13;;
23812;SDS011;12087;45.190;5.688;2023-04-06T10:45:22;8.68;;;4.63;;
23812;SDS011;12087;45.190;5.688;2023-04-06T10:50:48;13.05;;;5.72;;
23812;SDS011;12087;45.190;5.688;2023-04-06T10:56:12;7.72;;;5.15;;
23812;SDS011;12087;45.190;5.688;2023-04-06T11:01:36;7.68;;;5.18;;
23812;SDS011;12087;45.190;5.688;2023-04-06T11:07:00;8.93;;;5.25;;
23812;SDS011;12087;45.190;5.688;2023-04-06T11:12:22;9.73;;;4.90;;
23812;SDS011;12087;45.190;5.688;2023-04-06T11:17:45;13.65;;;5.40;;
23812;SDS011;12087;45.190;5.688;2023-04-06T11:23:10;8.82;;;4.95;;
23812;SDS011;12087;45.190;5.688;2023-04-06T11:28:33;10.68;;;5.93;;
23812;SDS011;12087;45.190;5.688;2023-04-06T11:33:55;10.40;;;4.95;;
23812;SDS011;12087;45.190;5.688;2023-04-06T11:39:22;6.38;;;4.80;;
23812;SDS011;12087;45.190;5.688;2023-04-06T11:44:44;6.90;;;4.55;;
23812;SDS011;12087;45.190;5.688;2023-04-06T11:50:09;5.93;;;4.05;;
23812;SDS011;12087;45.190;5.688;2023-04-06T11:55:38;10.02;;;4.50;;
23812;SDS011;12087;45.190;5.688;2023-04-06T12:01:03;6.15;;;4.45;;
23812;SDS011;12087;45.190;5.688;2023-04-06T12:06:26;6.88;;;4.80;;
23812;SDS011;12087;45.190;5.688;2023-04-06T12:11:50;9.73;;;4.28;;
23812;SDS011;12087;45.190;5.688;2023-04-06T12:17:12;9.23;;;4.47;;
23812;SDS011;12087;45.190;5.688;2023-04-06T12:22:34;5.93;;;3.90;;
23812;SDS011;12087;45.190;5.688;2023-04-06T12:27:58;9.68;;;4.35;;
23812;SDS011;12087;45.190;5.688;2023-04-06T12:33:20;5.93;;;4.20;;
23812;SDS011;12087;45.190;5.688;2023-04-06T12:38:43;10.73;;;4.50;;
23812;SDS011;12087;45.190;5.688;2023-04-06T12:44:07;4.70;;;3.58;;
23812;SDS011;12087;45.190;5.688;2023-04-06T12:49:30;4.40;;;3.60;;
23812;SDS011;12087;45.190;5.688;2023-04-06T12:54:52;6.45;;;3.97;;
23812;SDS011;12087;45.190;5.688;2023-04-06T13:00:16;7.63;;;2.88;;
23812;SDS011;12087;45.190;5.688;2023-04-06T13:05:43;5.53;;;4.03;;
23812;SDS011;12087;45.190;5.688;2023-04-06T13:11:05;4.05;;;3.30;;
23812;SDS011;12087;45.190;5.688;2023-04-06T13:16:30;7.20;;;3.45;;
23812;SDS011;12087;45.190;5.688;2023-04-06T13:21:52;4.45;;;3.25;;
23812;SDS011;12087;45.190;5.688;2023-04-06T13:27:14;4.45;;;3.20;;
23812;SDS011;12087;45.190;5.688;2023-04-06T13:32:38;5.75;;;3.03;;
23812;SDS011;12087;45.190;5.688;2023-04-06T13:38:00;3.25;;;2.72;;
23812;SDS011;12087;45.190;5.688;2023-04-06T13:43:23;3.20;;;2.10;;
23812;SDS011;12087;45.190;5.688;2023-04-06T13:48:48;4.72;;;2.58;;
23812;SDS011;12087;45.190;5.688;2023-04-06T13:54:11;5.07;;;2.13;;
23812;SDS011;12087;45.190;5.688;2023-04-06T13:59:33;2.25;;;1.95;;
23812;SDS011;12087;45.190;5.688;2023-04-06T14:04:57;6.57;;;2.08;;
23812;SDS011;12087;45.190;5.688;2023-04-06T14:10:19;3.97;;;2.20;;
23812;SDS011;12087;45.190;5.688;2023-04-06T14:15:43;7.32;;;2.40;;
23812;SDS011;12087;45.190;5.688;2023-04-06T14:21:07;2.65;;;1.83;;
23812;SDS011;12087;45.190;5.688;2023-04-06T14:26:30;3.00;;;1.80;;
23812;SDS011;12087;45.190;5.688;2023-04-06T14:31:52;2.65;;;1.63;;
23812;SDS011;12087;45.190;5.688;2023-04-06T14:37:21;2.60;;;1.45;;
23812;SDS011;12087;45.190;5.688;2023-04-06T14:42:43;1.90;;;1.38;;
23812;SDS011;12087;45.190;5.688;2023-04-06T14:48:05;2.65;;;2.05;;
23812;SDS011;12087;45.190;5.688;2023-04-06T14:53:33;2.72;;;2.10;;
23812;SDS011;12087;45.190;5.688;2023-04-06T14:58:56;2.45;;;1.75;;
23812;SDS011;12087;45.190;5.688;2023-04-06T15:04:19;4.25;;;1.85;;
23812;SDS011;12087;45.190;5.688;2023-04-06T15:09:43;5.95;;;2.20;;
23812;SDS011;12087;45.190;5.688;2023-04-06T15:15:05;3.20;;;1.67;;
23812;SDS011;12087;45.190;5.688;2023-04-06T15:20:28;2.33;;;1.65;;
23812;SDS011;12087;45.190;5.688;2023-04-06T15:25:52;2.53;;;1.30;;
23812;SDS011;12087;45.190;5.688;2023-04-06T15:31:15;2.90;;;1.20;;
23812;SDS011;12087;45.190;5.688;2023-04-06T15:36:37;1.65;;;1.27;;
23812;SDS011;12087;45.190;5.688;2023-04-06T15:42:01;2.03;;;1.65;;
23812;SDS011;12087;45.190;5.688;2023-04-06T15:47:23;2.13;;;1.30;;
23812;SDS011;12087;45.190;5.688;2023-04-06T15:52:45;1.20;;;1.10;;
23812;SDS011;12087;45.190;5.688;2023-04-06T15:58:09;2.38;;;1.70;;
23812;SDS011;12087;45.190;5.688;2023-04-06T16:03:31;1.60;;;1.13;;
23812;SDS011;12087;45.190;5.688;2023-04-06T16:08:53;2.28;;;1.30;;
23812;SDS011;12087;45.190;5.688;2023-04-06T16:14:17;1.65;;;1.30;;
23812;SDS011;12087;45.190;5.688;2023-04-06T16:19:39;2.13;;;1.52;;
23812;SDS011;12087;45.190;5.688;2023-04-06T16:25:02;5.03;;;1.85;;
23812;SDS011;12087;45.190;5.688;2023-04-06T16:30:26;2.50;;;1.48;;
23812;SDS011;12087;45.190;5.688;2023-04-06T16:35:49;2.40;;;1.30;;
23812;SDS011;12087;45.190;5.688;2023-04-06T16:41:11;1.75;;;1.08;;
23812;SDS011;12087;45.190;5.688;2023-04-06T16:46:37;5.28;;;1.23;;
23812;SDS011;12087;45.190;5.688;2023-04-06T16:51:59;2.35;;;0.90;;
23812;SDS011;12087;45.190;5.688;2023-04-06T16:57:23;1.48;;;0.95;;
23812;SDS011;12087;45.190;5.688;2023-04-06T17:02:50;2.88;;;1.10;;
23812;SDS011;12087;45.190;5.688;2023-04-06T17:08:12;2.13;;;0.68;;
23812;SDS011;12087;45.190;5.688;2023-04-06T17:13:34;2.20;;;0.90;;
23812;SDS011;12087;45.190;5.688;2023-04-06T17:18:58;1.67;;;1.10;;
23812;SDS011;12087;45.190;5.688;2023-04-06T17:24:20;1.17;;;1.00;;
23812;SDS011;12087;45.190;5.688;2023-04-06T17:29:42;4.45;;;1.80;;
23812;SDS011;12087;45.190;5.688;2023-04-06T17:35:06;2.45;;;1.42;;
23812;SDS011;12087;45.190;5.688;2023-04-06T17:40:30;4.32;;;1.52;;
23812;SDS011;12087;45.190;5.688;2023-04-06T17:45:52;3.20;;;1.17;;
23812;SDS011;12087;45.190;5.688;2023-04-06T17:51:16;3.55;;;1.95;;
23812;SDS011;12087;45.190;5.688;2023-04-06T17:56:39;6.47;;;3.28;;
23812;SDS011;12087;45.190;5.688;2023-04-06T18:02:02;4.25;;;2.90;;
23812;SDS011;12087;45.190;5.688;2023-04-06T18:07:27;3.30;;;2.45;;
23812;SDS011;12087;45.190;5.688;2023-04-06T18:12:50;5.32;;;1.80;;
23812;SDS011;12087;45.190;5.688;2023-04-06T18:18:12;2.00;;;1.40;;
23812;SDS011;12087;45.190;5.688;2023-04-06T18:23:37;6.50;;;2.70;;
23812;SDS011;12087;45.190;5.688;2023-04-06T18:28:59;12.52;;;6.45;;
23812;SDS011;12087;45.190;5.688;2023-04-06T18:34:22;2.58;;;1.63;;
23812;SDS011;12087;45.190;5.688;2023-04-06T18:39:46;3.55;;;1.90;;
23812;SDS011;12087;45.190;5.688;2023-04-06T18:45:08;3.90;;;1.48;;
23812;SDS011;12087;45.190;5.688;2023-04-06T18:50:31;1.52;;;1.25;;
23812;SDS011;12087;45.190;5.688;2023-04-06T18:55:55;2.42;;;1.70;;
23812;SDS011;12087;45.190;5.688;2023-04-06T19:01:21;3.38;;;1.85;;
23812;SDS011;12087;45.190;5.688;2023-04-06T19:06:44;4.32;;;1.52;;
23812;SDS011;12087;45.190;5.688;2023-04-06T19:12:08;4.95;;;1.50;;
23812;SDS011;12087;45.190;5.688;2023-04-06T19:17:30;2.53;;;1.70;;
23812;SDS011;12087;45.190;5.688;2023-04-06T19:22:52;1.70;;;1.20;;
23812;SDS011;12087;45.190;5.688;2023-04-06T19:28:18;5.28;;;1.50;;
23812;SDS011;12087;45.190;5.688;2023-04-06T19:33:40;3.60;;;1.55;;
23812;SDS011;12087;45.190;5.688;2023-04-06T19:39:03;1.73;;;1.23;;
23812;SDS011;12087;45.190;5.688;2023-04-06T19:44:27;2.70;;;1.50;;
23812;SDS011;12087;45.190;5.688;2023-04-06T19:49:49;3.00;;;1.80;;
23812;SDS011;12087;45.190;5.688;2023-04-06T19:55:12;4.65;;;1.23;;
23812;SDS011;12087;45.190;5.688;2023-04-06T20:00:36;2.50;;;1.60;;
23812;SDS011;12087;45.190;5.688;2023-04-06T20:05:58;2.45;;;1.73;;
23812;SDS011;12087;45.190;5.688;2023-04-06T20:11:20;4.03;;;2.42;;
23812;SDS011;12087;45.190;5.688;2023-04-06T20:16:44;2.30;;;1.60;;
23812;SDS011;12087;45.190;5.688;2023-04-06T20:22:06;2.35;;;1.60;;
23812;SDS011;12087;45.190;5.688;2023-04-06T20:27:28;2.53;;;1.60;;
23812;SDS011;12087;45.190;5.688;2023-04-06T20:32:52;2.85;;;1.40;;
23812;SDS011;12087;45.190;5.688;2023-04-06T20:38:14;3.03;;;1.65;;
23812;SDS011;12087;45.190;5.688;2023-04-06T20:43:36;3.28;;;1.75;;
23812;SDS011;12087;45.190;5.688;2023-04-06T20:49:00;11.15;;;2.08;;
23812;SDS011;12087;45.190;5.688;2023-04-06T20:54:23;5.28;;;2.10;;
23812;SDS011;12087;45.190;5.688;2023-04-06T20:59:45;2.78;;;1.77;;
23812;SDS011;12087;45.190;5.688;2023-04-06T21:05:10;2.78;;;1.90;;
23812;SDS011;12087;45.190;5.688;2023-04-06T21:10:32;2.75;;;1.85;;
23812;SDS011;12087;45.190;5.688;2023-04-06T21:15:55;3.80;;;1.50;;
23812;SDS011;12087;45.190;5.688;2023-04-06T21:21:18;2.63;;;1.42;;
23812;SDS011;12087;45.190;5.688;2023-04-06T21:26:41;3.65;;;1.80;;
23812;SDS011;12087;45.190;5.688;2023-04-06T21:32:03;7.50;;;1.80;;
23812;SDS011;12087;45.190;5.688;2023-04-06T21:37:27;10.60;;;2.30;;
23812;SDS011;12087;45.190;5.688;2023-04-06T21:42:50;3.80;;;1.67;;
23812;SDS011;12087;45.190;5.688;2023-04-06T21:48:12;3.20;;;1.23;;
23812;SDS011;12087;45.190;5.688;2023-04-06T21:53:35;2.90;;;1.40;;
23812;SDS011;12087;45.190;5.688;2023-04-06T21:58:58;2.13;;;1.40;;
23812;SDS011;12087;45.190;5.688;2023-04-06T22:04:20;2.08;;;1.42;;
23812;SDS011;12087;45.190;5.688;2023-04-06T22:09:45;4.97;;;1.45;;
23812;SDS011;12087;45.190;5.688;2023-04-06T22:15:09;3.25;;;1.55;;
23812;SDS011;12087;45.190;5.688;2023-04-06T22:20:34;4.22;;;1.88;;
23812;SDS011;12087;45.190;5.688;2023-04-06T22:25:58;4.13;;;1.60;;
23812;SDS011;12087;45.190;5.688;2023-04-06T22:31:20;3.85;;;1.45;;
23812;SDS011;12087;45.190;5.688;2023-04-06T22:36:42;3.00;;;1.52;;
23812;SDS011;12087;45.190;5.688;2023-04-06T22:42:06;4.00;;;1.48;;
23812;SDS011;12087;45.190;5.688;2023-04-06T22:47:28;3.70;;;1.70;;
23812;SDS011;12087;45.190;5.688;2023-04-06T22:52:50;3.05;;;1.83;;
23812;SDS011;12087;45.190;5.688;2023-04-06T22:58:14;3.40;;;1.50;;
23812;SDS011;12087;45.190;5.688;2023-04-06T23:03:36;3.83;;;1.73;;
23812;SDS011;12087;45.190;5.688;2023-04-06T23:08:59;3.20;;;1.95;;
23812;SDS011;12087;45.190;5.688;2023-04-06T23:14:23;4.43;;;1.95;;
23812;SDS011;12087;45.190;5.688;2023-04-06T23:19:45;2.53;;;1.58;;
23812;SDS011;12087;45.190;5.688;2023-04-06T23:25:07;4.40;;;2.10;;
23812;SDS011;12087;45.190;5.688;2023-04-06T23:30:31;2.83;;;1.73;;
23812;SDS011;12087;45.190;5.688;2023-04-06T23:35:54;3.17;;;1.48;;
23812;SDS011;12087;45.190;5.688;2023-04-06T23:41:16;3.38;;;1.80;;
23812;SDS011;12087;45.190;5.688;2023-04-06T23:46:40;3.42;;;2.10;;
23812;SDS011;12087;45.190;5.688;2023-04-06T23:52:02;2.10;;;1.40;;
23812;SDS011;12087;45.190;5.688;2023-04-06T23:57:24;2.40;;;1.67;;
